Lowell, Florida
Current Conditions -  °F | °C
As of 2:50 PM on Saturday 20 Dec 2014 (Local Time) from KOCF Reporting Station
Scattered Clouds Scattered Clouds  
Wind Chill: 72°   Ceiling: Unl
Heat Index: 72°   Visibility: 10mi
Dew Point: 57°   Wind: 5mph
Humidity: 60%   Direction: 70°ENE
Pressure: 30.05"   Gusts: NA
Location:  29.33°N, 82.19°W
Report Text: KOCF 201950Z 07004KT 10SM SCT110 22/14 A3005
Loading
Personal Weather Stations






























Interactive Weather Map New forecast layout! Learn more

10-Day Weather Forecast

Advertisements
Track Severe Weather on mobile